KBAF/BAF METAR and TAF weather

Enter ICAO airport designator
Station Type Date Time Source
KBAF METAR 2019/10/21 04:53 UTC NOAA

KBAF 210453Z AUTO 01004KT 9SM CLR 10/09 A3003 RMK AO2 SLP173 T01000089 401391011


Station Type Date Time Source
KBAF Decoded METAR 2019/10/21 04:53 UTC NOAA

WESTFIELD BARNES MUNICIPAL, MA, United States (KBAF) 42-10N 072-43W 83M
Oct 21, 2019 - 12:53 AM EDT / 2019.10.21 0453 UTC
Wind: from the N (010 degrees) at 5 MPH (4 KT):0
Visibility: 9 mile(s):0
Sky conditions: clear
Temperature: 50.0 F (10.0 C)
Dew Point: 48.0 F (8.9 C)
Relative Humidity: 92%
Pressure (altimeter): 30.03 in. Hg (1016 hPa)
ob: KBAF 210453Z AUTO 01004KT 9SM CLR 10/09 A3003 RMK AO2 SLP173 T01000089 401391011
cycle: 5

Station Type Date Time Source
KBAF TAF 2019/10/20 19:22 UTC NOAA

TAF
AMD KBAF 201920Z 2019/2118 00000KT P6SM -RA SCT040 OVC100
FM210000 00000KT P6SM VCSH BKN040 OVC060
FM210400 01006KT P6SM BKN035
FM211600 03006KT P6SM FEW200

Example: see airport list